首页
METAR-TAF:

METAR-TAF

机场 :

萨格勒布机场

萨格勒布, 克罗地亚

纬度: 45-44N, 经度: 016-04E, 海拔: 106米

当前天气观测

该预报发布于24分钟前的08:30 UTC
风速2节,风向多变
温度 8°C
湿度 53%
气压 1014 hPa
能见度10公里或以上
1500米以下无云,无积雨云

METAR: LDZA 030830Z VRB02KT CAVOK 08/M01 Q1014 NOSIG

时间: 10:54 (08:54 UTC)

预报

该预报发布于3小时和29分钟前的05:25 UTC
预报有效从03日的 06点(UTC)到 04日的 06点(UTC)
风速2节,风向多变
能见度10公里或以上
1500米以下无云,无积雨云
成为
从 04日的 04点(UTC)到 04日的 06点(UTC)
风速8节,风向北转东北

TAF: LDZA 030525Z 0306/0406 VRB02KT CAVOK TX17/0313Z TNM02/0306Z BECMG 0404/0406 03008KT

超过4000个机场的气象观测和天气预报(METAR&TAF报告)。

可查询的气象台以黄色和红色小点在地图上表示。

将鼠标移到小点上方,可查看气象台名称。

然后点击查看天气观测和预报。

如需切换地图:点击带黑十字的绿色按钮放大地图;点击带横线的绿色按钮缩小地图;或者点击绿色箭头查看邻近地区的地图。


METAR-TAF: